createdAt,value
2019-04-11T00:01:14.467Z,47.77
2019-04-11T00:04:18.787Z,47.82
2019-04-11T00:07:22.622Z,48.00
2019-04-11T00:10:27.263Z,47.87
2019-04-11T00:13:34.390Z,47.38
2019-04-11T00:16:37.643Z,47.69
2019-04-11T00:19:41.903Z,48.01
2019-04-11T00:22:46.117Z,47.43
2019-04-11T00:25:50.089Z,47.88
2019-04-11T00:28:54.260Z,48.17
2019-04-11T00:31:58.714Z,48.68
2019-04-11T00:35:03.572Z,48.22
2019-04-11T00:38:08.130Z,48.78
2019-04-11T00:41:12.036Z,49.65
2019-04-11T00:44:16.869Z,48.29
2019-04-11T00:47:20.800Z,49.33
2019-04-11T00:50:25.325Z,48.04
2019-04-11T00:53:29.880Z,48.87
2019-04-11T00:56:34.587Z,48.82
2019-04-11T00:59:39.079Z,50.22
2019-04-11T01:02:43.363Z,49.30
2019-04-11T01:05:48.440Z,48.93
2019-04-11T01:08:53.725Z,49.24
2019-04-11T01:11:58.467Z,49.47
2019-04-11T01:15:03.164Z,49.49
2019-04-11T01:18:07.029Z,49.95
2019-04-11T01:21:12.311Z,50.41
2019-04-11T01:24:17.675Z,50.96
2019-04-11T01:27:23.621Z,49.91
2019-04-11T01:30:35.251Z,50.91
2019-04-11T01:33:40.164Z,51.40
2019-04-11T01:36:45.055Z,52.35
2019-04-11T01:39:57.817Z,53.99
2019-04-11T01:43:01.984Z,53.39
2019-04-11T01:46:06.261Z,54.57
2019-04-11T01:49:17.237Z,55.30
2019-04-11T01:52:22.424Z,56.61
2019-04-11T01:55:28.193Z,57.07
2019-04-11T01:58:32.997Z,57.84
2019-04-11T02:01:51.163Z,59.27
2019-04-11T02:05:02.852Z,59.35
2019-04-11T02:08:07.234Z,59.42
2019-04-11T02:11:12.919Z,60.32
2019-04-11T02:14:19.487Z,60.83
2019-04-11T02:17:24.375Z,60.56
2019-04-11T02:20:29.196Z,61.72
2019-04-11T02:24:07.879Z,61.93
2019-04-11T02:27:30.851Z,62.14
2019-04-11T02:30:39.187Z,63.53
2019-04-11T02:33:43.960Z,63.25
2019-04-11T02:36:49.055Z,62.82
2019-04-11T02:39:55.318Z,62.76
2019-04-11T02:43:00.255Z,63.01
2019-04-11T02:46:17.521Z,63.57
2019-04-11T02:49:11.108Z,63.28
2019-04-11T02:52:17.079Z,63.61
2019-04-11T02:55:22.159Z,63.41
2019-04-11T02:58:27.813Z,63.45
2019-04-11T03:01:34.063Z,63.41
2019-04-11T03:04:39.325Z,63.69
2019-04-11T03:07:45.843Z,63.76
2019-04-11T03:10:51.441Z,63.94
2019-04-11T03:13:58.355Z,63.08
2019-04-11T03:17:14.088Z,64.30
2019-04-11T03:20:21.056Z,63.65
2019-04-11T03:23:18.549Z,63.75
2019-04-11T03:26:21.526Z,64.75
2019-04-11T03:29:26.733Z,65.62
2019-04-11T03:33:17.370Z,65.64
2019-04-11T03:39:05.446Z,65.23
2019-04-11T03:42:04.071Z,65.77
2019-04-11T03:45:20.430Z,66.25
2019-04-11T03:48:18.021Z,65.33
2019-04-11T03:51:10.941Z,65.91
2019-04-11T03:54:15.787Z,66.60
2019-04-11T03:57:21.561Z,66.60
2019-04-11T04:00:30.372Z,67.22
2019-04-11T04:03:31.906Z,67.06
2019-04-11T04:06:37.406Z,66.29
2019-04-11T04:09:45.916Z,67.24
2019-04-11T04:12:51.751Z,66.53
2019-04-11T04:16:12.074Z,67.48
2019-04-11T04:19:18.413Z,66.77
2019-04-11T04:22:29.405Z,67.67
2019-04-11T04:25:34.699Z,67.89
2019-04-11T04:28:40.850Z,67.67
2019-04-11T04:31:46.622Z,68.08
2019-04-11T04:34:52.842Z,68.88
2019-04-11T04:37:57.048Z,69.17
2019-04-11T04:41:16.321Z,69.14
2019-04-11T04:44:10.502Z,68.65
2019-04-11T04:47:23.042Z,68.54
2019-04-11T04:50:22.334Z,69.04
2019-04-11T04:53:28.248Z,69.44
2019-04-11T04:56:33.100Z,69.88
2019-04-11T04:59:39.985Z,70.74
2019-04-11T05:02:44.635Z,71.25
2019-04-11T05:05:48.810Z,70.33
2019-04-11T05:08:53.014Z,70.24
2019-04-11T05:11:56.800Z,70.52
2019-04-11T05:15:01.595Z,70.50
2019-04-11T05:18:06.289Z,70.24
2019-04-11T05:21:10.763Z,70.60
2019-04-11T05:24:14.761Z,69.90
2019-04-11T05:27:18.642Z,70.12
2019-04-11T05:30:23.253Z,69.93
2019-04-11T05:33:27.465Z,69.15
2019-04-11T05:36:32.343Z,68.51
2019-04-11T05:39:36.618Z,67.84
2019-04-11T05:42:41.710Z,67.29
2019-04-11T05:45:45.825Z,67.04
2019-04-11T05:49:05.409Z,67.41
2019-04-11T05:52:10.807Z,66.70
2019-04-11T05:55:15.584Z,66.61
2019-04-11T05:58:20.742Z,67.13
2019-04-11T06:01:32.192Z,66.75
2019-04-11T06:04:42.402Z,66.51
2019-04-11T06:07:55.586Z,64.12
2019-04-11T06:11:06.515Z,59.11
2019-04-11T06:14:17.233Z,54.77
2019-04-11T06:17:23.913Z,54.74
2019-04-11T06:20:43.220Z,52.97
2019-04-11T06:24:12.583Z,52.75
2019-04-11T06:27:20.044Z,52.40
2019-04-11T06:30:42.398Z,52.87
2019-04-11T06:33:51.051Z,51.40
2019-04-11T06:37:14.229Z,50.61
2019-04-11T06:40:38.403Z,52.25
2019-04-11T06:43:50.556Z,50.69
2019-04-11T06:47:05.449Z,50.01
2019-04-11T06:50:15.236Z,50.34
2019-04-11T06:53:23.817Z,50.54
2019-04-11T06:56:36.995Z,49.79
2019-04-11T06:59:43.416Z,49.08
2019-04-11T07:02:55.183Z,48.91
2019-04-11T07:06:01.331Z,48.42
2019-04-11T07:09:35.465Z,49.51
2019-04-11T07:12:58.951Z,48.86
2019-04-11T07:16:03.279Z,49.14
2019-04-11T07:19:32.609Z,47.61
2019-04-11T07:22:55.314Z,47.71
2019-04-11T07:26:22.978Z,47.81
2019-04-11T07:29:55.089Z,47.47
2019-04-11T07:33:12.894Z,48.81
2019-04-11T07:36:36.032Z,47.98
2019-04-11T07:39:58.589Z,47.03
2019-04-11T07:43:11.529Z,47.36
2019-04-11T07:46:34.999Z,46.90
2019-04-11T07:49:40.982Z,44.84
2019-04-11T07:52:49.440Z,45.48
2019-04-11T07:55:55.456Z,46.34
2019-04-11T07:59:02.933Z,46.55
2019-04-11T08:02:33.252Z,46.03
2019-04-11T08:06:05.348Z,45.66
2019-04-11T08:09:27.425Z,45.73
2019-04-11T08:12:31.983Z,45.45
2019-04-11T08:15:54.395Z,44.80
2019-04-11T08:19:21.123Z,44.99
2019-04-11T08:22:53.649Z,45.35
2019-04-11T08:26:18.119Z,45.33
2019-04-11T08:29:22.339Z,44.83
2019-04-11T08:32:48.296Z,44.79
2019-04-11T08:36:24.039Z,43.61
2019-04-11T08:39:33.351Z,44.13
2019-04-11T08:43:03.118Z,43.02
2019-04-11T08:46:13.337Z,42.96
2019-04-11T08:49:33.004Z,43.95
2019-04-11T08:52:44.432Z,42.05
2019-04-11T08:55:58.850Z,42.78
2019-04-11T08:59:41.991Z,42.62
2019-04-11T09:02:53.388Z,41.95
2019-04-11T09:06:25.790Z,42.04
2019-04-11T09:09:57.753Z,40.34
2019-04-11T09:13:31.315Z,40.54
2019-04-11T09:16:48.305Z,40.86
2019-04-11T09:20:11.529Z,40.39
2019-04-11T09:23:18.026Z,40.59
2019-04-11T09:26:47.894Z,40.09
2019-04-11T09:29:56.614Z,40.34
2019-04-11T09:33:39.428Z,40.23
2019-04-11T09:36:58.129Z,39.94
2019-04-11T09:40:24.223Z,37.33
2019-04-11T09:43:30.027Z,36.71
2019-04-11T09:46:59.706Z,36.59
2019-04-11T09:50:04.575Z,35.98
2019-04-11T09:53:09.963Z,37.54
2019-04-11T09:56:33.302Z,38.38
2019-04-11T09:59:50.180Z,37.82
2019-04-11T10:03:10.800Z,37.25
2019-04-11T10:06:36.936Z,36.22
2019-04-11T10:10:02.890Z,35.21
2019-04-11T10:13:24.991Z,36.28
2019-04-11T10:16:48.665Z,36.18
2019-04-11T10:20:06.492Z,36.67
2019-04-11T10:23:20.819Z,38.04
2019-04-11T10:26:29.956Z,37.34
2019-04-11T10:30:08.640Z,36.52
2019-04-11T10:33:31.666Z,36.73
2019-04-11T10:36:43.229Z,37.08
2019-04-11T10:40:04.510Z,36.74
2019-04-11T10:43:09.809Z,36.64
2019-04-11T10:46:33.286Z,37.08
2019-04-11T10:50:03.429Z,36.25
2019-04-11T10:53:08.855Z,36.36
2019-04-11T10:56:31.202Z,36.47
2019-04-11T10:59:35.582Z,37.23
2019-04-11T11:03:11.714Z,36.06
2019-04-11T11:06:17.733Z,35.93
2019-04-11T11:09:54.654Z,35.26
2019-04-11T11:13:11.877Z,35.75
2019-04-11T11:16:16.981Z,35.82
2019-04-11T11:19:50.048Z,34.61
2019-04-11T11:23:00.187Z,34.99
2019-04-11T11:26:19.669Z,35.45
2019-04-11T11:29:47.546Z,34.59
2019-04-11T11:32:51.815Z,33.95
2019-04-11T11:36:25.610Z,34.57
2019-04-11T11:39:58.931Z,35.45
2019-04-11T11:43:17.573Z,35.00
2019-04-11T11:46:50.726Z,32.01
2019-04-11T11:50:00.152Z,33.22
2019-04-11T11:53:18.925Z,33.08
2019-04-11T11:56:24.067Z,32.13
2019-04-11T11:59:38.578Z,33.34
2019-04-11T12:02:54.036Z,32.19
2019-04-11T12:06:00.936Z,33.09
2019-04-11T12:09:24.590Z,33.30
2019-04-11T12:12:53.931Z,32.82
2019-04-11T12:16:16.074Z,31.79
2019-04-11T12:19:22.380Z,31.72
2019-04-11T12:22:28.428Z,32.19
2019-04-11T12:25:37.070Z,32.10
2019-04-11T12:28:59.572Z,32.18
2019-04-11T12:32:06.251Z,31.39
2019-04-11T12:35:27.798Z,30.65
2019-04-11T12:38:54.678Z,29.93
2019-04-11T12:42:07.196Z,31.48
2019-04-11T12:45:39.319Z,29.19
2019-04-11T12:48:46.585Z,28.26
2019-04-11T12:52:08.706Z,29.35
2019-04-11T12:55:15.536Z,29.99
2019-04-11T12:58:31.594Z,29.60
2019-04-11T13:02:07.889Z,29.50
2019-04-11T13:05:13.573Z,28.98
2019-04-11T13:08:36.280Z,28.93
2019-04-11T13:11:42.211Z,29.08
2019-04-11T13:14:59.731Z,27.48
2019-04-11T13:18:14.717Z,28.03
2019-04-11T13:21:28.300Z,26.78
2019-04-11T13:25:00.599Z,28.45
2019-04-11T13:28:04.622Z,27.66
2019-04-11T13:31:26.480Z,29.27
2019-04-11T13:34:30.627Z,28.20
2019-04-11T13:37:52.867Z,27.72
2019-04-11T13:41:16.213Z,28.04
2019-04-11T13:44:34.608Z,27.19
2019-04-11T13:48:00.581Z,26.53
2019-04-11T13:51:08.700Z,27.34
2019-04-11T13:54:36.983Z,27.49
2019-04-11T13:57:59.946Z,27.90
2019-04-11T14:01:10.820Z,26.56
2019-04-11T14:04:21.007Z,26.16
2019-04-11T14:07:25.036Z,24.60
2019-04-11T14:10:31.531Z,25.64
2019-04-11T14:13:42.705Z,26.00
2019-04-11T14:16:54.777Z,24.99
2019-04-11T14:20:28.273Z,25.16
2019-04-11T14:23:41.947Z,25.43
2019-04-11T14:26:48.307Z,25.43
2019-04-11T14:30:05.120Z,24.75
2019-04-11T14:33:10.565Z,25.54
2019-04-11T14:36:34.002Z,25.27
2019-04-11T14:39:40.645Z,25.12
2019-04-11T14:43:06.574Z,24.36
2019-04-11T14:46:32.207Z,23.52
2019-04-11T14:49:40.566Z,23.18
2019-04-11T14:52:59.453Z,23.34
2019-04-11T14:56:06.335Z,24.23
2019-04-11T14:59:44.642Z,23.79
2019-04-11T15:03:10.596Z,23.70
2019-04-11T15:06:21.973Z,24.37
2019-04-11T15:09:46.439Z,24.03
2019-04-11T15:12:49.422Z,24.41
2019-04-11T15:16:11.007Z,23.65
2019-04-11T15:19:15.090Z,23.86
2019-04-11T15:22:27.340Z,24.66
2019-04-11T15:26:08.907Z,24.22
2019-04-11T15:29:32.001Z,24.16
2019-04-11T15:32:49.225Z,23.73
2019-04-11T15:35:57.804Z,23.03
2019-04-11T15:39:14.352Z,23.48
2019-04-11T15:42:27.961Z,23.30
2019-04-11T15:45:55.511Z,23.41
2019-04-11T15:49:21.210Z,24.10
2019-04-11T15:52:24.476Z,24.44
2019-04-11T15:55:53.167Z,23.95
2019-04-11T15:59:02.841Z,23.99
2019-04-11T16:02:28.962Z,24.44
2019-04-11T16:05:50.716Z,24.40
2019-04-11T16:08:57.723Z,23.84
2019-04-11T16:12:09.247Z,24.93
2019-04-11T16:15:14.918Z,24.93
2019-04-11T16:18:50.238Z,24.54
2019-04-11T16:22:08.847Z,24.48
2019-04-11T16:25:17.491Z,24.48
2019-04-11T16:28:39.733Z,25.22
2019-04-11T16:31:45.905Z,25.30
2019-04-11T16:34:58.934Z,25.30
2019-04-11T16:38:04.510Z,25.10
2019-04-11T16:41:26.654Z,24.75
2019-04-11T16:44:41.073Z,25.64
2019-04-11T16:48:10.449Z,25.56
2019-04-11T16:51:14.376Z,26.19
2019-04-11T16:54:18.580Z,26.61
2019-04-11T16:57:23.141Z,26.83
2019-04-11T17:00:27.519Z,27.37
2019-04-11T17:03:31.530Z,27.98
2019-04-11T17:06:55.380Z,27.61
2019-04-11T17:09:59.363Z,27.95
2019-04-11T17:13:03.269Z,28.25
2019-04-11T17:16:10.345Z,28.09
2019-04-11T17:19:14.482Z,28.36
2019-04-11T17:22:18.892Z,28.43
2019-04-11T17:25:24.308Z,29.48
2019-04-11T17:28:28.145Z,29.31
2019-04-11T17:31:32.224Z,29.18
2019-04-11T17:34:36.463Z,28.82
2019-04-11T17:37:40.578Z,28.76
2019-04-11T17:40:44.397Z,29.14
2019-04-11T17:43:51.546Z,29.87
2019-04-11T17:46:56.383Z,30.73
2019-04-11T17:49:59.753Z,30.57
2019-04-11T17:53:03.713Z,30.82
2019-04-11T17:56:07.980Z,30.66
2019-04-11T17:59:12.230Z,30.62
2019-04-11T18:02:16.276Z,31.44
2019-04-11T18:05:20.529Z,31.42
2019-04-11T18:08:24.651Z,31.07
2019-04-11T18:11:28.879Z,31.37
2019-04-11T18:14:33.395Z,31.55
2019-04-11T18:17:37.502Z,31.87
2019-04-11T18:20:41.562Z,31.86
2019-04-11T18:23:49.815Z,32.15
2019-04-11T18:26:52.457Z,32.35
2019-04-11T18:29:56.442Z,32.40
2019-04-11T18:33:00.292Z,33.02
2019-04-11T18:36:06.186Z,33.13
2019-04-11T18:39:10.566Z,33.09
2019-04-11T18:42:14.780Z,33.34
2019-04-11T18:45:19.355Z,33.73
2019-04-11T18:48:23.258Z,33.88
2019-04-11T18:51:27.160Z,33.85
2019-04-11T18:54:31.466Z,34.07
2019-04-11T18:57:35.382Z,34.52
2019-04-11T19:00:39.671Z,34.56
2019-04-11T19:03:43.986Z,34.29
2019-04-11T19:06:47.986Z,34.75
2019-04-11T19:09:51.986Z,35.29
2019-04-11T19:12:56.005Z,35.51
2019-04-11T19:16:00.138Z,34.28
2019-04-11T19:19:04.007Z,35.68
2019-04-11T19:22:08.042Z,36.96
2019-04-11T19:25:12.514Z,37.70
2019-04-11T19:28:16.647Z,38.17
2019-04-11T19:31:20.453Z,38.85
2019-04-11T19:34:24.694Z,39.19
2019-04-11T19:37:30.055Z,40.01
2019-04-11T19:40:33.878Z,40.51
2019-04-11T19:43:40.556Z,41.51
2019-04-11T19:46:43.708Z,41.60
2019-04-11T19:49:48.029Z,41.32
2019-04-11T19:52:55.166Z,41.68
2019-04-11T19:56:05.365Z,41.28
2019-04-11T19:59:09.670Z,40.34
2019-04-11T20:02:13.763Z,40.37
2019-04-11T20:05:17.592Z,40.54
2019-04-11T20:08:21.780Z,40.97
2019-04-11T20:11:26.084Z,40.17
2019-04-11T20:14:34.178Z,39.83
2019-04-11T20:17:44.217Z,40.11
2019-04-11T20:20:41.720Z,40.05
2019-04-11T20:23:45.463Z,40.88
2019-04-11T20:26:50.350Z,41.34
2019-04-11T20:29:55.337Z,42.39
2019-04-11T20:33:02.912Z,42.92
2019-04-11T20:36:04.816Z,42.67
2019-04-11T20:39:09.293Z,42.65
2019-04-11T20:42:13.105Z,43.00
2019-04-11T20:45:16.932Z,43.41
2019-04-11T20:48:20.744Z,43.29
2019-04-11T20:51:24.890Z,44.68
2019-04-11T20:54:28.905Z,43.53
2019-04-11T20:57:32.931Z,41.98
2019-04-11T21:00:49.654Z,42.35
2019-04-11T21:03:43.627Z,42.10
2019-04-11T21:06:49.476Z,42.47
2019-04-11T21:09:53.557Z,42.59
2019-04-11T21:12:57.346Z,42.81
2019-04-11T21:16:01.250Z,43.01
2019-04-11T21:19:05.161Z,43.22
2019-04-11T21:22:08.971Z,42.70
2019-04-11T21:25:12.914Z,42.77
2019-04-11T21:28:25.166Z,43.00
2019-04-11T21:31:31.236Z,42.99
2019-04-11T21:34:34.736Z,43.99
2019-04-11T21:37:38.527Z,43.49
2019-04-11T21:40:42.295Z,43.50
2019-04-11T21:43:46.123Z,43.54
2019-04-11T21:46:50.000Z,44.66
2019-04-11T21:49:53.892Z,44.94
2019-04-11T21:52:57.703Z,44.25
2019-04-11T21:56:01.885Z,44.64
2019-04-11T21:59:05.687Z,44.08
2019-04-11T22:02:11.923Z,44.02
2019-04-11T22:05:16.314Z,44.62
2019-04-11T22:08:20.149Z,44.69
2019-04-11T22:11:24.345Z,44.47
2019-04-11T22:14:28.704Z,44.69
2019-04-11T22:17:32.892Z,45.02
2019-04-11T22:20:36.798Z,45.30
2019-04-11T22:23:48.733Z,44.76
2019-04-11T22:26:50.143Z,45.20
2019-04-11T22:29:54.983Z,45.36
2019-04-11T22:33:06.996Z,45.91
2019-04-11T22:36:11.234Z,46.15
2019-04-11T22:39:15.239Z,46.69
2019-04-11T22:42:19.186Z,46.70
2019-04-11T22:45:23.689Z,46.30
2019-04-11T22:48:27.921Z,46.84
2019-04-11T22:51:32.032Z,46.08
2019-04-11T22:54:36.481Z,46.34
2019-04-11T22:57:40.884Z,47.17
2019-04-11T23:00:46.289Z,46.85
2019-04-11T23:03:54.310Z,46.45
2019-04-11T23:06:58.504Z,46.28
2019-04-11T23:10:02.681Z,47.30
2019-04-11T23:13:06.454Z,47.97
2019-04-11T23:16:12.038Z,46.77
2019-04-11T23:19:15.872Z,47.03
2019-04-11T23:22:19.709Z,46.82
2019-04-11T23:25:25.178Z,47.47
2019-04-11T23:28:29.034Z,47.31
2019-04-11T23:31:33.221Z,46.22
2019-04-11T23:34:37.117Z,47.29
2019-04-11T23:37:53.769Z,46.24
2019-04-11T23:40:57.891Z,46.70
2019-04-11T23:44:01.939Z,47.12
2019-04-11T23:47:06.190Z,46.40
2019-04-11T23:50:10.386Z,46.23
2019-04-11T23:53:14.237Z,46.40
2019-04-11T23:56:18.412Z,46.55
2019-04-11T23:59:22.622Z,46.46
